Flight Track Log - Related Links

Times and Time Zones

All times are in EDT time to prevent confusion due to time zone crossing. See the CSN3233 flight status page for this flight to view local times or setup timezone preferences in your user account.

Time Position Orientation Groundspeed Altitude Reporting Facility
EDT Latitude Longitude Course Direction KTS MPH feet Rate Location/Type
Wed 08:27:19 AM 24.4790 110.9810 135° Southeast 401 461 24,600  Level FlightAware ADS-B
Wed 08:28:03 AM 24.4180 111.0370 140° Southeast 404 465 24,600  Level FlightAware ADS-B
Wed 08:28:41 AM 24.3670 111.0790 143° Southeast 405 466 24,600  Level FlightAware ADS-B
Wed 08:29:17 AM 24.3100 111.1250 144° Southeast 396 456 24,600  Level FlightAware ADS-B
Wed 08:30:46 AM 24.1840 111.2260 144° Southeast 383 441 24,600  Level FlightAware ADS-B
Wed 08:31:22 AM 24.1400 111.2610 144° Southeast 383 441 24,600  Level FlightAware ADS-B
Wed 08:32:25 AM 24.0530 111.3620 133° Southeast 376 433 24,600  Level FlightAware ADS-B
Wed 08:33:06 AM 24.0090 111.4090 136° Southeast 376 433 24,600  Level FlightAware ADS-B
Wed 08:33:50 AM 23.9520 111.4720 135° Southeast 374 430 24,600  Level FlightAware ADS-B
Wed 08:34:37 AM 23.8890 111.5390 136° Southeast 373 429 24,600  Level FlightAware ADS-B
Wed 08:35:12 AM 23.8470 111.5840 136° Southeast 373 429 24,600 -87 Level FlightAware ADS-B
Wed 08:35:46 AM 23.8090 111.6250 135° Southeast 372 428 24,500 -1,000 Descending FlightAware ADS-B
Wed 08:36:36 AM 23.7410 111.6970 136° Southeast 381 438 23,200 -1,592 Descending FlightAware ADS-B
Wed 08:37:24 AM 23.6810 111.7610 136° Southeast 387 445 21,900 -1,636 Descending FlightAware ADS-B
Wed 08:38:04 AM 23.6280 111.8180 135° Southeast 386 444 20,800 -1,953 Descending FlightAware ADS-B
Wed 08:38:50 AM 23.5690 111.8800 136° Southeast 383 441 19,100 -2,074 Descending FlightAware ADS-B
Wed 08:39:25 AM 23.5260 111.9270 135° Southeast 376 433 18,000 -1,950 Descending FlightAware ADS-B
Wed 08:40:10 AM 23.4730 111.9890 133° Southeast 365 420 16,500 -1,955 Descending FlightAware ADS-B
Wed 08:40:54 AM 23.4240 112.0500 131° Southeast 355 409 15,100 -1,860 Descending FlightAware ADS-B
Wed 08:41:50 AM 23.3650 112.1240 131° Southeast 345 397 13,400 -1,453 Descending FlightAware ADS-B
Wed 08:42:29 AM 23.3250 112.1720 132° Southeast 337 388 12,800 -429 Descending FlightAware ADS-B
Wed 08:43:14 AM 23.2770 112.2320 131° Southeast 334 384 12,800  Level FlightAware ADS-B
Wed 08:44:11 AM 23.2210 112.3010 131° Southeast 330 380 12,800  Level FlightAware ADS-B
Wed 08:44:50 AM 23.1810 112.3490 132° Southeast 326 375 12,800 -71 Level FlightAware ADS-B
Wed 08:45:36 AM 23.1360 112.4050 131° Southeast 307 353 12,700 -516 Descending FlightAware ADS-B
Wed 08:46:23 AM 23.0920 112.4590 132° Southeast 305 351 12,000 -918 Descending FlightAware ADS-B
Wed 08:47:01 AM 23.0700 112.5110 115° Southeast 304 350 11,400 -917 Descending FlightAware ADS-B
Wed 08:47:35 AM 23.0700 112.5640 90° East 304 350 10,900 -375 Descending FlightAware ADS-B
Wed 08:48:37 AM 23.0690 112.6570 91° East 295 339 10,800 -184 Descending FlightAware ADS-B
Wed 08:49:13 AM 23.0690 112.7070 90° East 268 308 10,600 -514 Descending FlightAware ADS-B
Wed 08:49:47 AM 23.0690 112.7510 90° East 251 289 10,200 -882 Descending FlightAware ADS-B
Wed 08:50:21 AM 23.0690 112.7940 90° East 245 282 9,600 -1,071 Descending FlightAware ADS-B
Wed 08:50:43 AM 23.0680 112.8220 92° East 242 278 9,200 -1,125 Descending FlightAware ADS-B
Wed 08:51:25 AM 23.0680 112.8730 90° East 239 275 8,400 -1,111 Descending FlightAware ADS-B
Wed 08:51:37 AM 23.0680 112.8860 90° East 239 275 8,200 -1,179 Descending FlightAware ADS-B
Wed 08:52:21 AM 23.0770 112.9360 79° East 240 276 7,300 -1,167 Descending FlightAware ADS-B
Wed 08:52:49 AM 23.0890 112.9690 68° East 236 272 6,800 -1,031 Descending FlightAware ADS-B
Wed 08:53:25 AM 23.1000 113.0090 73° East 232 267 6,200 -656 Descending FlightAware ADS-B
Wed 08:53:53 AM 23.1090 113.0390 72° East 225 259 6,100 -526 Descending FlightAware ADS-B
Wed 08:54:22 AM 23.1170 113.0710 75° East 223 257 5,700 -1,053 Descending FlightAware ADS-B
Wed 08:54:50 AM 23.1250 113.1000 73° East 227 261 5,100 -1,059 Descending FlightAware ADS-B
Wed 08:55:13 AM 23.1330 113.1260 71° East 215 247 4,800 -566 Descending FlightAware ADS-B
Wed 08:55:43 AM 23.1410 113.1550 73° East 191 220 4,600 -522 Descending FlightAware ADS-B
Wed 08:55:59 AM 23.1450 113.1690 73° East 183 211 4,400 -1,091 Descending FlightAware ADS-B
Wed 08:56:27 AM 23.1580 113.1920 58° Northeast 187 215 3,800 -1,071 Descending FlightAware ADS-B
Wed 08:56:55 AM 23.1740 113.2090 44° Northeast 181 208 3,400 -643 Descending FlightAware ADS-B
Wed 08:57:23 AM 23.1910 113.2270 44° Northeast 178 205 3,200 -300 Descending FlightAware ADS-B
Wed 08:57:35 AM 23.2000 113.2340 36° Northeast 182 209 3,200  Level FlightAware ADS-B
Wed 08:58:03 AM 23.2220 113.2400 14° North 181 208 3,200 -500 Level FlightAware ADS-B
Wed 08:58:23 AM 23.2390 113.2450 15° North 188 216 2,800 -980 Descending FlightAware ADS-B
Wed 08:58:52 AM 23.2620 113.2520 16° North 174 200 2,400 -818 Descending FlightAware ADS-B
Wed 08:59:07 AM 23.2740 113.2560 17° North 165 190 2,200 -818 Descending FlightAware ADS-B
Wed 08:59:36 AM 23.2950 113.2610 12° North 160 184 1,800 -828 Descending FlightAware ADS-B
Wed 09:00:05 AM 23.3170 113.2670 14° North 161 185 1,400 -828 Descending FlightAware ADS-B
Wed 09:02:00 AM 23.3924 113.2988 21° North  Level Estimated
Wed 09:03:00 AM 23.3924 113.2988 223° Southwest  Level Estimated
Wed 09:04:00 AM 23.3924 113.2988 223° Southwest  Level Estimated
Wed 09:05:00 AM 23.3924 113.2988 223° Southwest  Level Estimated
Wed 09:06:00 AM 23.3924 113.2988 223° Southwest  Level Estimated
Wed 09:07:00 AM 23.3924 113.2988 223° Southwest  Level Estimated
Wed 09:08:00 AM 23.3924 113.2988 223° Southwest  Level Estimated
Wed 09:09:00 AM 23.3924 113.2988 223° Southwest  Level Estimated
Wed 09:10:00 AM 23.3924 113.2988 223° Southwest  Level Estimated
Wed 09:11:00 AM 23.3924 113.2988 223° Southwest  Level Estimated
Wed 09:12:00 AM 23.3924 113.2988 223° Southwest  Level Estimated
Wed 09:13:00 AM 23.3924 113.2988 223° Southwest  Level Estimated
Wed 09:14:00 AM 23.3924 113.2988 223° Southwest  Level Estimated

Login

Don't have an account? Register now (free) for customized features, flight alerts, and more!